Time;durP1;ratioP1;P1;durP2;ratioP2;P2;SDS_P1;SDS_P2;PMS_P1;PMS_P2;Temp;Humidity;BMP_temperature;BMP_pressure;BME280_temperature;BME280_humidity;BME280_pressure;Samples;Min_cycle;Max_cycle;Signal;HPM_P1;HPM_P2
2023/04/09 09:30:27;;;;;;;37.22;25.60;;;9.10;99.90;;;;;;5012991;28;20054;-86
2023/04/09 09:33:08;;;;;;;38.03;26.75;;;9.20;99.90;;;;;;4985458;28;20052;-82
2023/04/09 09:35:50;;;;;;;39.33;27.80;;;9.30;99.90;;;;;;5004965;28;20041;-81
2023/04/09 09:38:17;;;;;;;39.47;26.83;;;9.30;99.90;;;;;;4976129;28;20548;-81
2023/04/09 09:40:43;;;;;;;54.03;27.23;;;12.10;99.90;;;;;;5017157;28;20582;-80
2023/04/09 09:43:09;;;;;;;39.20;27.25;;;9.40;99.90;;;;;;5010256;28;20055;-83
2023/04/09 09:45:38;;;;;;;40.95;28.85;;;9.50;99.90;;;;;;5031707;28;20412;-82
2023/04/09 09:48:05;;;;;;;37.35;27.10;;;9.50;99.90;;;;;;4977240;28;20857;-83
2023/04/09 09:50:33;;;;;;;41.25;26.58;;;9.60;99.90;;;;;;4990060;28;20081;-84
2023/04/09 09:53:07;;;;;;;51.92;28.17;;;9.90;99.90;;;;;;5023666;28;20066;-82
2023/04/09 09:55:47;;;;;;;38.30;27.48;;;11.60;99.90;;;;;;5004096;28;20733;-81
2023/04/09 09:58:26;;;;;;;40.70;27.05;;;9.80;99.90;;;;;;5000243;28;20072;-82
2023/04/09 10:00:52;;;;;;;38.13;27.08;;;9.80;99.90;;;;;;5039838;28;20069;-81
2023/04/09 10:03:45;;;;;;;34.28;25.77;;;9.90;99.90;;;;;;5014872;28;20050;-81
2023/04/09 10:06:12;;;;;;;38.33;28.17;;;9.90;99.90;;;;;;5012128;28;20061;-81
2023/04/09 10:09:38;;;;;;;36.22;26.45;;;10.60;99.90;;;;;;5022323;28;20060;-82
2023/04/09 10:13:56;;;;;;;36.25;25.60;;;10.00;99.90;;;;;;5009132;28;20641;-81
2023/04/09 10:36:34;;;;;;;33.10;24.60;;;10.40;99.90;;;;;;4962759;28;20648;-82
2023/04/09 10:43:35;;;;;;;35.53;25.00;;;10.60;99.90;;;;;;4925638;28;20652;-87
2023/04/09 10:51:22;;;;;;;32.05;23.88;;;10.90;99.90;;;;;;5002475;28;20081;-88
2023/04/09 11:06:01;;;;;;;29.38;22.35;;;11.40;99.90;;;;;;5029335;28;20041;-80
2023/04/09 11:08:32;;;;;;;31.60;22.27;;;11.60;99.90;;;;;;5050572;28;20103;-78
2023/04/09 11:11:00;;;;;;;41.03;24.30;;;12.70;99.90;;;;;;5033703;28;20052;-80
2023/04/09 11:13:30;;;;;;;36.63;23.38;;;11.90;99.90;;;;;;5009432;28;20065;-80
2023/04/09 11:15:57;;;;;;;36.33;21.92;;;13.00;99.90;;;;;;4986176;28;20494;-81
2023/04/09 11:18:25;;;;;;;28.33;21.90;;;13.00;99.90;;;;;;4994402;28;20506;-81
2023/04/09 11:20:55;;;;;;;29.23;22.02;;;13.00;99.90;;;;;;5006475;28;20183;-80
2023/04/09 11:23:22;;;;;;;29.58;21.65;;;12.40;99.90;;;;;;4991591;28;20042;-79
2023/04/09 11:25:49;;;;;;;26.75;20.00;;;12.50;99.90;;;;;;5010455;28;20045;-81
2023/04/09 11:28:16;;;;;;;29.70;21.67;;;12.60;99.90;;;;;;5015621;28;20604;-80
2023/04/09 11:30:42;;;;;;;25.23;19.40;;;13.10;99.90;;;;;;4999087;28;20382;-81
2023/04/09 11:33:08;;;;;;;26.80;20.45;;;12.80;99.90;;;;;;5028786;28;20080;-80
2023/04/09 11:35:38;;;;;;;32.72;21.02;;;14.80;99.90;;;;;;5023045;28;20113;-76
2023/04/09 11:38:08;;;;;;;28.35;19.48;;;13.70;99.90;;;;;;5011125;28;20048;-79
2023/04/09 11:40:34;;;;;;;26.80;21.00;;;15.10;99.90;;;;;;5011399;28;20136;-80
2023/04/09 11:43:00;;;;;;;25.73;21.10;;;13.40;99.90;;;;;;5007404;28;20128;-81
2023/04/09 11:45:29;;;;;;;30.10;21.23;;;15.10;99.90;;;;;;5045097;28;20623;-78
2023/04/09 11:47:55;;;;;;;26.02;21.08;;;13.50;99.90;;;;;;5063429;28;20076;-84
2023/04/09 11:50:21;;;;;;;25.08;19.75;;;15.50;99.90;;;;;;5061395;28;20053;-85
2023/04/09 11:52:48;;;;;;;26.98;20.35;;;12.00;99.90;;;;;;5035925;28;20519;-80
2023/04/09 11:55:25;;;;;;;26.27;20.10;;;13.90;99.90;;;;;;5029101;28;20583;-80
2023/04/09 11:57:56;;;;;;;36.83;19.70;;;15.20;99.90;;;;;;5031804;28;20056;-79
2023/04/09 12:00:23;;;;;;;28.13;20.33;;;14.50;99.90;;;;;;5029686;28;20052;-79
2023/04/09 12:02:58;;;;;;;21.30;17.38;;;14.00;99.90;;;;;;5047387;28;20051;-80
2023/04/09 12:05:24;;;;;;;;;;;14.20;99.90;;;;;;5030342;28;20049;-81
2023/04/09 12:07:51;;;;;;;21.63;18.05;;;14.20;99.90;;;;;;5022022;28;20067;-81
2023/04/09 12:10:17;;;;;;;25.58;17.48;;;14.10;99.90;;;;;;4996090;28;20057;-82
2023/04/09 12:12:47;;;;;;;25.42;18.85;;;15.70;99.90;;;;;;5016950;28;20053;-80
2023/04/09 12:15:23;;;;;;;23.00;18.38;;;14.10;99.90;;;;;;5046691;28;20136;-80
2023/04/09 12:17:52;;;;;;;25.25;16.85;;;14.10;99.90;;;;;;5013226;28;20053;-82
2023/04/09 12:20:42;;;;;;;29.30;17.95;;;14.10;99.90;;;;;;5046471;28;20042;-82
2023/04/09 12:23:09;;;;;;;20.75;16.70;;;14.10;99.90;;;;;;4991733;28;20091;-82
2023/04/09 12:25:43;;;;;;;20.88;17.83;;;15.00;99.90;;;;;;5030108;28;20051;-83
2023/04/09 12:28:11;;;;;;;23.42;19.35;;;14.10;99.90;;;;;;5031123;28;20046;-84
2023/04/09 12:30:36;;;;;;;23.40;18.40;;;14.00;99.90;;;;;;5019521;28;20045;-86
2023/04/09 12:33:03;;;;;;;22.35;17.75;;;14.50;99.90;;;;;;5010456;28;20068;-86
2023/04/09 12:35:28;;;;;;;25.40;19.67;;;13.00;99.90;;;;;;5028934;28;20092;-91
2023/04/09 12:37:54;;;;;;;24.13;19.77;;;13.70;99.90;;;;;;5026546;28;20084;-88
2023/04/09 12:40:21;;;;;;;22.50;17.33;;;14.80;99.90;;;;;;5025299;28;20060;-87
2023/04/09 13:30:56;;;;;;;17.23;15.40;;;16.80;99.90;;;;;;5046554;28;20102;-89
2023/04/09 15:49:08;;;;;;;150.35;62.47;;;15.20;99.90;;;;;;5050257;28;20418;-83
2023/04/09 15:52:19;;;;;;;72.35;41.10;;;15.20;99.90;;;;;;5055321;28;20037;-84
2023/04/09 15:59:50;;;;;;;26.75;18.77;;;14.90;99.90;;;;;;5003979;28;20133;-84
2023/04/09 18:47:08;;;;;;;13.38;11.10;;;12.00;99.90;;;;;;5029162;28;20088;-81
